sensor_id;sensor_type;location;lat;lon;timestamp;P1;durP1;ratioP1;P2;durP2;ratioP2
30096;SDS011;16915;51.466;3.610;2022-09-29T07:21:43;1.30;;;0.45;;
30096;SDS011;16915;51.466;3.610;2022-09-29T07:26:48;0.50;;;0.50;;
30096;SDS011;16915;51.466;3.610;2022-09-29T07:29:15;0.60;;;0.60;;
30096;SDS011;16915;51.466;3.610;2022-09-29T07:31:45;2.65;;;0.70;;
30096;SDS011;16915;51.466;3.610;2022-09-29T07:34:16;1.23;;;0.40;;
30096;SDS011;16915;51.466;3.610;2022-09-29T07:36:42;0.30;;;0.30;;
30096;SDS011;16915;51.466;3.610;2022-09-29T07:39:11;0.63;;;0.30;;
30096;SDS011;16915;51.466;3.610;2022-09-29T07:41:42;1.67;;;0.43;;
30096;SDS011;16915;51.466;3.610;2022-09-29T07:44:09;0.73;;;0.47;;
30096;SDS011;16915;51.466;3.610;2022-09-29T07:46:36;0.30;;;0.30;;
30096;SDS011;16915;51.466;3.610;2022-09-29T07:49:02;2.65;;;0.35;;
30096;SDS011;16915;51.466;3.610;2022-09-29T07:51:30;0.85;;;0.40;;
30096;SDS011;16915;51.466;3.610;2022-09-29T07:53:59;0.32;;;0.32;;
30096;SDS011;16915;51.466;3.610;2022-09-29T07:56:30;0.20;;;0.20;;
30096;SDS011;16915;51.466;3.610;2022-09-29T07:58:58;0.10;;;0.10;;
30096;SDS011;16915;51.466;3.610;2022-09-29T08:01:33;0.22;;;0.20;;
30096;SDS011;16915;51.466;3.610;2022-09-29T08:04:01;0.30;;;0.20;;
30096;SDS011;16915;51.466;3.610;2022-09-29T08:06:27;0.25;;;0.13;;
30096;SDS011;16915;51.466;3.610;2022-09-29T08:08:54;0.20;;;0.20;;
30096;SDS011;16915;51.466;3.610;2022-09-29T08:11:25;0.13;;;0.13;;
30096;SDS011;16915;51.466;3.610;2022-09-29T08:13:52;0.47;;;0.20;;
30096;SDS011;16915;51.466;3.610;2022-09-29T08:16:19;0.57;;;0.17;;
30096;SDS011;16915;51.466;3.610;2022-09-29T08:18:46;2.47;;;0.20;;
30096;SDS011;16915;51.466;3.610;2022-09-29T08:21:12;0.63;;;0.20;;
30096;SDS011;16915;51.466;3.610;2022-09-29T08:23:40;2.10;;;0.25;;
30096;SDS011;16915;51.466;3.610;2022-09-29T08:28:37;1.75;;;0.20;;
30096;SDS011;16915;51.466;3.610;2022-09-29T08:31:15;0.13;;;0.10;;
30096;SDS011;16915;51.466;3.610;2022-09-29T08:33:49;0.82;;;0.10;;
30096;SDS011;16915;51.466;3.610;2022-09-29T08:36:17;0.08;;;0.08;;
30096;SDS011;16915;51.466;3.610;2022-09-29T08:38:45;0.25;;;0.10;;
30096;SDS011;16915;51.466;3.610;2022-09-29T08:41:31;0.95;;;0.10;;
30096;SDS011;16915;51.466;3.610;2022-09-29T08:46:56;1.50;;;0.10;;
30096;SDS011;16915;51.466;3.610;2022-09-29T08:51:55;0.30;;;0.10;;
30096;SDS011;16915;51.466;3.610;2022-09-29T08:57:01;0.73;;;0.10;;
30096;SDS011;16915;51.466;3.610;2022-09-29T08:59:29;0.38;;;0.22;;
30096;SDS011;16915;51.466;3.610;2022-09-29T09:02:02;0.95;;;0.40;;
30096;SDS011;16915;51.466;3.610;2022-09-29T09:10:12;1.83;;;0.30;;
30096;SDS011;16915;51.466;3.610;2022-09-29T09:12:49;0.32;;;0.30;;
30096;SDS011;16915;51.466;3.610;2022-09-29T09:15:55;0.88;;;0.28;;
30096;SDS011;16915;51.466;3.610;2022-09-29T09:18:27;0.55;;;0.10;;
30096;SDS011;16915;51.466;3.610;2022-09-29T09:26:05;0.80;;;0.45;;
30096;SDS011;16915;51.466;3.610;2022-09-29T09:28:33;0.73;;;0.20;;
30096;SDS011;16915;51.466;3.610;2022-09-29T09:31:12;0.50;;;0.30;;
30096;SDS011;16915;51.466;3.610;2022-09-29T09:39:05;0.52;;;0.10;;
30096;SDS011;16915;51.466;3.610;2022-09-29T09:41:34;0.38;;;0.10;;
30096;SDS011;16915;51.466;3.610;2022-09-29T09:44:11;0.52;;;0.10;;
30096;SDS011;16915;51.466;3.610;2022-09-29T09:46:48;0.85;;;0.10;;
30096;SDS011;16915;51.466;3.610;2022-09-29T09:52:10;0.85;;;0.10;;
30096;SDS011;16915;51.466;3.610;2022-09-29T09:54:52;1.25;;;0.15;;
30096;SDS011;16915;51.466;3.610;2022-09-29T10:02:54;0.30;;;0.10;;
30096;SDS011;16915;51.466;3.610;2022-09-29T10:08:02;0.50;;;0.20;;
30096;SDS011;16915;51.466;3.610;2022-09-29T10:10:35;1.40;;;0.28;;
30096;SDS011;16915;51.466;3.610;2022-09-29T10:13:04;4.20;;;1.00;;
30096;SDS011;16915;51.466;3.610;2022-09-29T10:15:37;3.80;;;0.30;;
30096;SDS011;16915;51.466;3.610;2022-09-29T10:18:17;1.10;;;0.35;;
30096;SDS011;16915;51.466;3.610;2022-09-29T10:20:46;2.42;;;0.20;;
30096;SDS011;16915;51.466;3.610;2022-09-29T10:28:37;0.70;;;0.20;;
30096;SDS011;16915;51.466;3.610;2022-09-29T10:34:18;2.92;;;0.20;;
30096;SDS011;16915;51.466;3.610;2022-09-29T10:45:15;1.50;;;0.10;;
30096;SDS011;16915;51.466;3.610;2022-09-29T10:50:24;0.30;;;0.10;;
30096;SDS011;16915;51.466;3.610;2022-09-29T10:52:55;3.25;;;0.30;;
30096;SDS011;16915;51.466;3.610;2022-09-29T10:55:29;0.28;;;0.10;;
30096;SDS011;16915;51.466;3.610;2022-09-29T10:57:57;0.10;;;0.10;;
30096;SDS011;16915;51.466;3.610;2022-09-29T11:00:33;0.47;;;0.17;;
30096;SDS011;16915;51.466;3.610;2022-09-29T11:05:57;0.70;;;0.10;;
30096;SDS011;16915;51.466;3.610;2022-09-29T11:08:26;0.52;;;0.20;;
30096;SDS011;16915;51.466;3.610;2022-09-29T11:11:01;1.13;;;0.10;;
30096;SDS011;16915;51.466;3.610;2022-09-29T11:13:38;1.65;;;0.13;;
30096;SDS011;16915;51.466;3.610;2022-09-29T11:16:27;1.58;;;0.10;;
30096;SDS011;16915;51.466;3.610;2022-09-29T11:18:52;0.75;;;0.10;;
30096;SDS011;16915;51.466;3.610;2022-09-29T11:32:35;1.67;;;0.10;;
30096;SDS011;16915;51.466;3.610;2022-09-29T11:41:02;0.75;;;0.13;;
30096;SDS011;16915;51.466;3.610;2022-09-29T11:46:27;0.22;;;0.05;;
30096;SDS011;16915;51.466;3.610;2022-09-29T12:00:18;0.20;;;0.20;;
30096;SDS011;16915;51.466;3.610;2022-09-29T12:14:00;0.80;;;0.20;;
30096;SDS011;16915;51.466;3.610;2022-09-29T12:16:29;0.70;;;0.10;;
30096;SDS011;16915;51.466;3.610;2022-09-29T12:18:59;0.60;;;0.20;;
30096;SDS011;16915;51.466;3.610;2022-09-29T12:21:40;0.20;;;0.10;;
30096;SDS011;16915;51.466;3.610;2022-09-29T12:24:18;0.17;;;0.10;;
30096;SDS011;16915;51.466;3.610;2022-09-29T12:26:53;0.30;;;0.10;;
30096;SDS011;16915;51.466;3.610;2022-09-29T12:32:00;1.27;;;0.10;;
30096;SDS011;16915;51.466;3.610;2022-09-29T12:34:37;0.68;;;0.10;;
30096;SDS011;16915;51.466;3.610;2022-09-29T12:37:05;0.10;;;0.00;;
30096;SDS011;16915;51.466;3.610;2022-09-29T12:39:49;0.88;;;0.13;;
30096;SDS011;16915;51.466;3.610;2022-09-29T12:48:04;0.55;;;0.25;;
30096;SDS011;16915;51.466;3.610;2022-09-29T12:50:41;0.08;;;0.00;;
30096;SDS011;16915;51.466;3.610;2022-09-29T12:53:41;1.13;;;0.10;;
30096;SDS011;16915;51.466;3.610;2022-09-29T12:56:25;0.57;;;0.08;;
30096;SDS011;16915;51.466;3.610;2022-09-29T12:59:04;1.13;;;0.00;;
30096;SDS011;16915;51.466;3.610;2022-09-29T13:01:46;0.55;;;0.25;;
30096;SDS011;16915;51.466;3.610;2022-09-29T13:04:28;0.15;;;0.10;;
30096;SDS011;16915;51.466;3.610;2022-09-29T13:28:50;0.25;;;0.10;;
30096;SDS011;16915;51.466;3.610;2022-09-29T13:31:20;0.90;;;0.20;;
30096;SDS011;16915;51.466;3.610;2022-09-29T13:33:53;0.20;;;0.15;;
30096;SDS011;16915;51.466;3.610;2022-09-29T13:36:24;1.20;;;0.52;;
30096;SDS011;16915;51.466;3.610;2022-09-29T13:39:00;0.65;;;0.20;;
30096;SDS011;16915;51.466;3.610;2022-09-29T13:41:32;0.65;;;0.08;;
30096;SDS011;16915;51.466;3.610;2022-09-29T13:44:04;0.05;;;0.05;;
30096;SDS011;16915;51.466;3.610;2022-09-29T13:56:59;0.28;;;0.10;;
30096;SDS011;16915;51.466;3.610;2022-09-29T13:59:29;3.70;;;0.47;;
30096;SDS011;16915;51.466;3.610;2022-09-29T14:01:55;1.75;;;0.10;;
30096;SDS011;16915;51.466;3.610;2022-09-29T14:07:09;1.95;;;0.25;;
30096;SDS011;16915;51.466;3.610;2022-09-29T14:09:38;0.93;;;0.20;;
30096;SDS011;16915;51.466;3.610;2022-09-29T14:12:20;1.83;;;0.15;;
30096;SDS011;16915;51.466;3.610;2022-09-29T14:14:55;0.30;;;0.13;;
30096;SDS011;16915;51.466;3.610;2022-09-29T14:22:51;0.98;;;0.20;;
30096;SDS011;16915;51.466;3.610;2022-09-29T14:43:36;0.17;;;0.10;;
30096;SDS011;16915;51.466;3.610;2022-09-29T14:49:15;0.35;;;0.10;;
30096;SDS011;16915;51.466;3.610;2022-09-29T14:55:02;0.38;;;0.28;;
30096;SDS011;16915;51.466;3.610;2022-09-29T15:02:49;2.13;;;0.30;;
30096;SDS011;16915;51.466;3.610;2022-09-29T15:05:29;0.17;;;0.10;;
30096;SDS011;16915;51.466;3.610;2022-09-29T15:07:57;0.00;;;0.00;;
30096;SDS011;16915;51.466;3.610;2022-09-29T15:10:25;0.00;;;0.00;;
30096;SDS011;16915;51.466;3.610;2022-09-29T15:15:53;2.67;;;0.10;;
30096;SDS011;16915;51.466;3.610;2022-09-29T15:21:42;0.10;;;0.10;;
30096;SDS011;16915;51.466;3.610;2022-09-29T15:24:33;0.90;;;0.10;;
30096;SDS011;16915;51.466;3.610;2022-09-29T15:27:08;0.10;;;0.10;;
30096;SDS011;16915;51.466;3.610;2022-09-29T15:29:37;0.60;;;0.20;;
30096;SDS011;16915;51.466;3.610;2022-09-29T15:32:03;1.98;;;0.45;;
30096;SDS011;16915;51.466;3.610;2022-09-29T15:34:44;0.60;;;0.10;;
30096;SDS011;16915;51.466;3.610;2022-09-29T15:37:10;0.40;;;0.40;;
30096;SDS011;16915;51.466;3.610;2022-09-29T15:39:43;0.43;;;0.10;;
30096;SDS011;16915;51.466;3.610;2022-09-29T15:42:25;1.20;;;0.25;;
30096;SDS011;16915;51.466;3.610;2022-09-29T15:44:58;2.35;;;0.17;;
30096;SDS011;16915;51.466;3.610;2022-09-29T15:47:38;1.55;;;0.20;;
30096;SDS011;16915;51.466;3.610;2022-09-29T15:50:16;0.80;;;0.10;;
30096;SDS011;16915;51.466;3.610;2022-09-29T15:52:57;0.63;;;0.28;;
30096;SDS011;16915;51.466;3.610;2022-09-29T15:55:27;1.80;;;0.40;;
30096;SDS011;16915;51.466;3.610;2022-09-29T15:58:00;0.60;;;0.20;;
30096;SDS011;16915;51.466;3.610;2022-09-29T16:00:44;0.93;;;0.28;;
30096;SDS011;16915;51.466;3.610;2022-09-29T16:03:18;0.32;;;0.20;;
30096;SDS011;16915;51.466;3.610;2022-09-29T16:06:29;2.20;;;0.13;;
30096;SDS011;16915;51.466;3.610;2022-09-29T16:11:52;0.32;;;0.10;;
30096;SDS011;16915;51.466;3.610;2022-09-29T16:14:41;1.45;;;0.00;;
30096;SDS011;16915;51.466;3.610;2022-09-29T16:17:17;0.30;;;0.10;;
30096;SDS011;16915;51.466;3.610;2022-09-29T16:19:43;0.85;;;0.20;;
30096;SDS011;16915;51.466;3.610;2022-09-29T16:22:13;2.05;;;0.60;;
30096;SDS011;16915;51.466;3.610;2022-09-29T16:24:54;3.70;;;1.00;;
30096;SDS011;16915;51.466;3.610;2022-09-29T16:27:45;1.98;;;0.40;;
30096;SDS011;16915;51.466;3.610;2022-09-29T16:30:31;0.68;;;0.25;;
30096;SDS011;16915;51.466;3.610;2022-09-29T16:33:20;3.13;;;0.22;;
30096;SDS011;16915;51.466;3.610;2022-09-29T16:36:13;0.20;;;0.20;;
30096;SDS011;16915;51.466;3.610;2022-09-29T16:39:15;0.30;;;0.30;;
30096;SDS011;16915;51.466;3.610;2022-09-29T16:42:21;0.30;;;0.30;;
30096;SDS011;16915;51.466;3.610;2022-09-29T16:45:40;0.43;;;0.38;;
30096;SDS011;16915;51.466;3.610;2022-09-29T16:52:46;0.75;;;0.38;;
30096;SDS011;16915;51.466;3.610;2022-09-29T16:58:04;2.05;;;0.28;;
30096;SDS011;16915;51.466;3.610;2022-09-29T17:01:15;0.40;;;0.30;;
30096;SDS011;16915;51.466;3.610;2022-09-29T17:03:46;2.17;;;0.30;;
30096;SDS011;16915;51.466;3.610;2022-09-29T17:07:11;0.40;;;0.30;;
30096;SDS011;16915;51.466;3.610;2022-09-29T17:10:22;0.47;;;0.40;;
30096;SDS011;16915;51.466;3.610;2022-09-29T17:13:20;1.95;;;0.45;;
30096;SDS011;16915;51.466;3.610;2022-09-29T17:16:18;2.60;;;0.93;;
30096;SDS011;16915;51.466;3.610;2022-09-29T17:18:52;2.85;;;1.48;;
30096;SDS011;16915;51.466;3.610;2022-09-29T17:21:22;0.80;;;0.80;;
30096;SDS011;16915;51.466;3.610;2022-09-29T17:23:56;1.42;;;1.00;;
30096;SDS011;16915;51.466;3.610;2022-09-29T17:26:33;3.08;;;1.05;;
30096;SDS011;16915;51.466;3.610;2022-09-29T17:29:30;2.20;;;0.88;;
30096;SDS011;16915;51.466;3.610;2022-09-29T17:32:08;0.98;;;0.88;;
30096;SDS011;16915;51.466;3.610;2022-09-29T17:34:46;1.38;;;1.05;;
30096;SDS011;16915;51.466;3.610;2022-09-29T17:41:13;0.93;;;0.90;;
30096;SDS011;16915;51.466;3.610;2022-09-29T17:44:14;5.20;;;1.02;;
30096;SDS011;16915;51.466;3.610;2022-09-29T17:47:03;0.80;;;0.77;;
30096;SDS011;16915;51.466;3.610;2022-09-29T17:50:33;1.88;;;0.85;;
30096;SDS011;16915;51.466;3.610;2022-09-29T17:54:11;1.00;;;0.70;;
30096;SDS011;16915;51.466;3.610;2022-09-29T17:57:07;3.05;;;0.90;;
30096;SDS011;16915;51.466;3.610;2022-09-29T18:00:23;0.60;;;0.60;;
30096;SDS011;16915;51.466;3.610;2022-09-29T18:03:11;4.38;;;1.65;;
30096;SDS011;16915;51.466;3.610;2022-09-29T18:05:45;2.40;;;2.20;;
30096;SDS011;16915;51.466;3.610;2022-09-29T18:08:38;6.10;;;3.70;;
